sensor_id;sensor_type;location;lat;lon;timestamp;P1;durP1;ratioP1;P2;durP2;ratioP2
59922;SDS011;45778;51.142;3.732;2023-02-22T00:00:16;295.65;;;49.38;;
59922;SDS011;45778;51.142;3.732;2023-02-22T00:02:46;252.27;;;42.13;;
59922;SDS011;45778;51.142;3.732;2023-02-22T00:05:16;283.90;;;43.92;;
59922;SDS011;45778;51.142;3.732;2023-02-22T00:07:48;235.45;;;40.17;;
59922;SDS011;45778;51.142;3.732;2023-02-22T00:10:15;185.18;;;38.15;;
59922;SDS011;45778;51.142;3.732;2023-02-22T00:12:44;181.57;;;38.20;;
59922;SDS011;45778;51.142;3.732;2023-02-22T00:15:12;167.95;;;36.45;;
59922;SDS011;45778;51.142;3.732;2023-02-22T00:17:39;227.55;;;38.20;;
59922;SDS011;45778;51.142;3.732;2023-02-22T00:20:05;212.70;;;38.13;;
59922;SDS011;45778;51.142;3.732;2023-02-22T00:22:32;279.00;;;42.08;;
59922;SDS011;45778;51.142;3.732;2023-02-22T00:24:58;261.73;;;41.95;;
59922;SDS011;45778;51.142;3.732;2023-02-22T00:27:24;209.32;;;39.88;;
59922;SDS011;45778;51.142;3.732;2023-02-22T00:29:50;264.13;;;41.85;;
59922;SDS011;45778;51.142;3.732;2023-02-22T00:32:15;223.15;;;40.53;;
59922;SDS011;45778;51.142;3.732;2023-02-22T00:34:41;218.93;;;39.13;;
59922;SDS011;45778;51.142;3.732;2023-02-22T00:37:08;226.23;;;38.92;;
59922;SDS011;45778;51.142;3.732;2023-02-22T00:39:35;195.88;;;38.38;;
59922;SDS011;45778;51.142;3.732;2023-02-22T00:42:00;176.63;;;35.70;;
59922;SDS011;45778;51.142;3.732;2023-02-22T00:44:26;183.45;;;37.47;;
59922;SDS011;45778;51.142;3.732;2023-02-22T00:46:52;220.63;;;42.78;;
59922;SDS011;45778;51.142;3.732;2023-02-22T00:49:18;356.63;;;46.90;;
59922;SDS011;45778;51.142;3.732;2023-02-22T00:51:44;273.83;;;44.70;;
59922;SDS011;45778;51.142;3.732;2023-02-22T00:54:09;330.65;;;45.85;;
59922;SDS011;45778;51.142;3.732;2023-02-22T00:56:35;267.70;;;42.70;;
59922;SDS011;45778;51.142;3.732;2023-02-22T00:59:02;199.73;;;38.63;;
59922;SDS011;45778;51.142;3.732;2023-02-22T01:01:28;289.83;;;44.10;;
59922;SDS011;45778;51.142;3.732;2023-02-22T01:03:55;160.05;;;36.20;;
59922;SDS011;45778;51.142;3.732;2023-02-22T01:06:21;185.45;;;37.05;;
59922;SDS011;45778;51.142;3.732;2023-02-22T01:08:47;175.88;;;34.88;;
59922;SDS011;45778;51.142;3.732;2023-02-22T01:11:16;175.00;;;34.92;;
59922;SDS011;45778;51.142;3.732;2023-02-22T01:13:42;209.05;;;35.20;;
59922;SDS011;45778;51.142;3.732;2023-02-22T01:16:10;168.25;;;36.13;;
59922;SDS011;45778;51.142;3.732;2023-02-22T01:18:36;183.18;;;38.25;;
59922;SDS011;45778;51.142;3.732;2023-02-22T01:21:02;150.73;;;35.47;;
59922;SDS011;45778;51.142;3.732;2023-02-22T01:23:28;135.68;;;33.28;;
59922;SDS011;45778;51.142;3.732;2023-02-22T01:25:54;176.15;;;33.13;;
59922;SDS011;45778;51.142;3.732;2023-02-22T01:28:21;200.45;;;35.75;;
59922;SDS011;45778;51.142;3.732;2023-02-22T01:30:47;148.60;;;34.67;;
59922;SDS011;45778;51.142;3.732;2023-02-22T01:33:12;172.50;;;32.88;;
59922;SDS011;45778;51.142;3.732;2023-02-22T01:35:40;169.23;;;35.05;;
59922;SDS011;45778;51.142;3.732;2023-02-22T01:38:07;146.25;;;34.38;;
59922;SDS011;45778;51.142;3.732;2023-02-22T01:40:37;131.18;;;32.40;;
59922;SDS011;45778;51.142;3.732;2023-02-22T01:43:25;208.82;;;36.10;;
59922;SDS011;45778;51.142;3.732;2023-02-22T01:53:36;200.98;;;37.00;;
59922;SDS011;45778;51.142;3.732;2023-02-22T01:56:24;143.63;;;32.33;;
59922;SDS011;45778;51.142;3.732;2023-02-22T01:58:53;157.32;;;32.58;;
59922;SDS011;45778;51.142;3.732;2023-02-22T02:01:22;128.57;;;29.40;;
59922;SDS011;45778;51.142;3.732;2023-02-22T02:03:51;142.88;;;29.48;;
59922;SDS011;45778;51.142;3.732;2023-02-22T02:06:22;160.77;;;32.95;;
59922;SDS011;45778;51.142;3.732;2023-02-22T02:08:54;138.60;;;30.92;;
59922;SDS011;45778;51.142;3.732;2023-02-22T02:11:28;136.52;;;30.83;;
59922;SDS011;45778;51.142;3.732;2023-02-22T02:13:55;141.60;;;31.08;;
59922;SDS011;45778;51.142;3.732;2023-02-22T02:16:23;158.48;;;32.50;;
59922;SDS011;45778;51.142;3.732;2023-02-22T02:18:51;133.20;;;32.75;;
59922;SDS011;45778;51.142;3.732;2023-02-22T02:42:46;94.60;;;27.55;;
59922;SDS011;45778;51.142;3.732;2023-02-22T02:45:21;99.82;;;30.08;;
59922;SDS011;45778;51.142;3.732;2023-02-22T02:50:24;72.05;;;26.80;;
59922;SDS011;45778;51.142;3.732;2023-02-22T02:52:54;77.55;;;27.90;;
59922;SDS011;45778;51.142;3.732;2023-02-22T02:55:23;77.28;;;28.10;;
59922;SDS011;45778;51.142;3.732;2023-02-22T02:57:50;91.18;;;29.00;;
59922;SDS011;45778;51.142;3.732;2023-02-22T03:00:17;90.22;;;29.70;;
59922;SDS011;45778;51.142;3.732;2023-02-22T03:03:11;91.55;;;29.70;;
59922;SDS011;45778;51.142;3.732;2023-02-22T03:11:47;93.50;;;28.52;;
59922;SDS011;45778;51.142;3.732;2023-02-22T03:14:32;90.93;;;29.42;;
59922;SDS011;45778;51.142;3.732;2023-02-22T03:17:27;99.15;;;27.55;;
59922;SDS011;45778;51.142;3.732;2023-02-22T03:20:14;83.22;;;27.67;;
59922;SDS011;45778;51.142;3.732;2023-02-22T03:22:49;76.28;;;27.67;;
59922;SDS011;45778;51.142;3.732;2023-02-22T03:25:22;79.15;;;27.70;;
59922;SDS011;45778;51.142;3.732;2023-02-22T03:27:56;77.78;;;28.48;;
59922;SDS011;45778;51.142;3.732;2023-02-22T03:33:16;72.55;;;27.88;;
59922;SDS011;45778;51.142;3.732;2023-02-22T03:36:06;79.07;;;27.20;;
59922;SDS011;45778;51.142;3.732;2023-02-22T03:38:34;69.30;;;27.63;;
59922;SDS011;45778;51.142;3.732;2023-02-22T03:41:02;70.32;;;28.38;;
59922;SDS011;45778;51.142;3.732;2023-02-22T03:43:33;80.03;;;29.08;;
59922;SDS011;45778;51.142;3.732;2023-02-22T03:46:06;77.53;;;27.20;;
59922;SDS011;45778;51.142;3.732;2023-02-22T03:48:37;84.63;;;27.95;;
59922;SDS011;45778;51.142;3.732;2023-02-22T03:51:11;83.65;;;28.67;;
59922;SDS011;45778;51.142;3.732;2023-02-22T03:53:40;79.57;;;29.00;;
59922;SDS011;45778;51.142;3.732;2023-02-22T03:56:13;69.07;;;26.00;;
59922;SDS011;45778;51.142;3.732;2023-02-22T03:58:52;60.80;;;27.08;;
59922;SDS011;45778;51.142;3.732;2023-02-22T04:01:19;64.00;;;26.02;;
59922;SDS011;45778;51.142;3.732;2023-02-22T04:03:47;61.20;;;25.90;;
59922;SDS011;45778;51.142;3.732;2023-02-22T04:06:13;65.43;;;26.42;;
59922;SDS011;45778;51.142;3.732;2023-02-22T04:08:39;67.43;;;26.05;;
59922;SDS011;45778;51.142;3.732;2023-02-22T04:11:04;67.78;;;27.33;;
59922;SDS011;45778;51.142;3.732;2023-02-22T04:13:30;65.03;;;26.75;;
59922;SDS011;45778;51.142;3.732;2023-02-22T04:15:56;61.03;;;25.83;;
59922;SDS011;45778;51.142;3.732;2023-02-22T04:18:21;67.20;;;27.30;;
59922;SDS011;45778;51.142;3.732;2023-02-22T04:20:47;71.95;;;29.05;;
59922;SDS011;45778;51.142;3.732;2023-02-22T04:23:13;64.03;;;25.88;;
59922;SDS011;45778;51.142;3.732;2023-02-22T04:25:40;57.75;;;25.80;;
59922;SDS011;45778;51.142;3.732;2023-02-22T04:28:06;54.45;;;25.55;;
59922;SDS011;45778;51.142;3.732;2023-02-22T04:30:32;54.60;;;25.02;;
59922;SDS011;45778;51.142;3.732;2023-02-22T04:32:57;66.40;;;26.10;;
59922;SDS011;45778;51.142;3.732;2023-02-22T04:35:23;55.08;;;26.10;;
59922;SDS011;45778;51.142;3.732;2023-02-22T04:37:49;56.78;;;25.42;;
59922;SDS011;45778;51.142;3.732;2023-02-22T04:40:15;54.15;;;25.42;;
59922;SDS011;45778;51.142;3.732;2023-02-22T04:42:41;55.20;;;24.60;;
59922;SDS011;45778;51.142;3.732;2023-02-22T04:45:07;55.67;;;25.85;;
59922;SDS011;45778;51.142;3.732;2023-02-22T04:47:34;54.90;;;26.23;;
59922;SDS011;45778;51.142;3.732;2023-02-22T04:50:02;56.03;;;25.27;;
59922;SDS011;45778;51.142;3.732;2023-02-22T04:52:29;48.15;;;24.58;;
59922;SDS011;45778;51.142;3.732;2023-02-22T04:54:55;68.10;;;28.27;;
59922;SDS011;45778;51.142;3.732;2023-02-22T04:57:21;61.38;;;27.85;;
59922;SDS011;45778;51.142;3.732;2023-02-22T04:59:47;61.25;;;26.55;;
59922;SDS011;45778;51.142;3.732;2023-02-22T05:02:15;64.22;;;27.25;;
59922;SDS011;45778;51.142;3.732;2023-02-22T05:04:41;66.65;;;28.13;;
59922;SDS011;45778;51.142;3.732;2023-02-22T05:07:07;68.85;;;27.58;;
59922;SDS011;45778;51.142;3.732;2023-02-22T05:09:32;60.38;;;28.70;;
59922;SDS011;45778;51.142;3.732;2023-02-22T05:11:58;65.03;;;27.27;;
59922;SDS011;45778;51.142;3.732;2023-02-22T05:14:24;59.78;;;26.48;;
59922;SDS011;45778;51.142;3.732;2023-02-22T05:16:51;63.35;;;27.40;;
59922;SDS011;45778;51.142;3.732;2023-02-22T05:19:21;56.17;;;26.25;;
59922;SDS011;45778;51.142;3.732;2023-02-22T05:21:48;63.55;;;27.80;;
59922;SDS011;45778;51.142;3.732;2023-02-22T05:24:14;61.88;;;28.23;;
59922;SDS011;45778;51.142;3.732;2023-02-22T05:26:41;62.47;;;28.23;;
59922;SDS011;45778;51.142;3.732;2023-02-22T05:29:08;65.80;;;28.80;;
59922;SDS011;45778;51.142;3.732;2023-02-22T05:31:34;68.25;;;29.45;;
59922;SDS011;45778;51.142;3.732;2023-02-22T05:33:59;69.13;;;30.90;;
59922;SDS011;45778;51.142;3.732;2023-02-22T05:36:25;66.60;;;30.73;;
59922;SDS011;45778;51.142;3.732;2023-02-22T05:38:52;70.00;;;32.25;;
59922;SDS011;45778;51.142;3.732;2023-02-22T05:41:18;75.32;;;32.55;;
59922;SDS011;45778;51.142;3.732;2023-02-22T05:43:44;72.05;;;32.72;;
59922;SDS011;45778;51.142;3.732;2023-02-22T05:46:09;71.90;;;32.03;;
59922;SDS011;45778;51.142;3.732;2023-02-22T05:48:35;73.90;;;32.88;;
59922;SDS011;45778;51.142;3.732;2023-02-22T05:51:01;75.20;;;33.55;;
59922;SDS011;45778;51.142;3.732;2023-02-22T05:53:28;77.88;;;34.92;;
59922;SDS011;45778;51.142;3.732;2023-02-22T05:55:54;69.22;;;30.52;;
59922;SDS011;45778;51.142;3.732;2023-02-22T05:58:20;69.43;;;31.45;;
59922;SDS011;45778;51.142;3.732;2023-02-22T06:00:46;76.15;;;31.73;;
59922;SDS011;45778;51.142;3.732;2023-02-22T06:03:12;76.03;;;32.45;;
59922;SDS011;45778;51.142;3.732;2023-02-22T06:05:38;70.47;;;32.17;;
59922;SDS011;45778;51.142;3.732;2023-02-22T06:08:04;77.45;;;32.92;;
59922;SDS011;45778;51.142;3.732;2023-02-22T06:10:31;76.63;;;33.65;;
59922;SDS011;45778;51.142;3.732;2023-02-22T06:12:57;76.90;;;35.20;;
59922;SDS011;45778;51.142;3.732;2023-02-22T06:15:24;73.20;;;35.70;;
59922;SDS011;45778;51.142;3.732;2023-02-22T06:17:51;81.45;;;36.03;;
59922;SDS011;45778;51.142;3.732;2023-02-22T06:20:19;77.50;;;37.03;;
59922;SDS011;45778;51.142;3.732;2023-02-22T06:22:50;75.40;;;35.67;;
59922;SDS011;45778;51.142;3.732;2023-02-22T06:25:18;66.30;;;34.28;;
59922;SDS011;45778;51.142;3.732;2023-02-22T06:27:47;78.30;;;35.83;;
59922;SDS011;45778;51.142;3.732;2023-02-22T06:30:13;71.47;;;34.33;;
59922;SDS011;45778;51.142;3.732;2023-02-22T06:32:40;72.57;;;32.88;;
59922;SDS011;45778;51.142;3.732;2023-02-22T06:35:06;58.80;;;30.55;;
59922;SDS011;45778;51.142;3.732;2023-02-22T06:37:32;55.90;;;29.05;;
59922;SDS011;45778;51.142;3.732;2023-02-22T06:39:58;64.00;;;31.65;;
59922;SDS011;45778;51.142;3.732;2023-02-22T06:42:23;62.22;;;29.13;;
59922;SDS011;45778;51.142;3.732;2023-02-22T06:44:50;57.42;;;30.55;;
59922;SDS011;45778;51.142;3.732;2023-02-22T06:47:16;61.08;;;30.42;;
59922;SDS011;45778;51.142;3.732;2023-02-22T06:49:41;56.10;;;29.73;;
59922;SDS011;45778;51.142;3.732;2023-02-22T06:52:07;58.05;;;27.90;;
59922;SDS011;45778;51.142;3.732;2023-02-22T06:54:34;56.03;;;27.35;;
59922;SDS011;45778;51.142;3.732;2023-02-22T06:57:01;54.53;;;27.35;;
59922;SDS011;45778;51.142;3.732;2023-02-22T06:59:26;50.53;;;25.67;;
59922;SDS011;45778;51.142;3.732;2023-02-22T07:01:52;49.42;;;26.52;;
59922;SDS011;45778;51.142;3.732;2023-02-22T07:04:18;52.15;;;25.70;;
59922;SDS011;45778;51.142;3.732;2023-02-22T07:06:45;47.63;;;24.63;;
59922;SDS011;45778;51.142;3.732;2023-02-22T07:09:12;44.95;;;24.58;;
59922;SDS011;45778;51.142;3.732;2023-02-22T07:11:38;46.33;;;24.42;;
59922;SDS011;45778;51.142;3.732;2023-02-22T07:14:04;42.90;;;24.92;;
59922;SDS011;45778;51.142;3.732;2023-02-22T07:16:30;45.50;;;26.08;;
59922;SDS011;45778;51.142;3.732;2023-02-22T07:18:57;49.53;;;24.85;;
59922;SDS011;45778;51.142;3.732;2023-02-22T07:21:24;45.95;;;24.90;;
59922;SDS011;45778;51.142;3.732;2023-02-22T07:23:51;45.85;;;24.25;;
59922;SDS011;45778;51.142;3.732;2023-02-22T07:26:18;47.75;;;26.80;;
59922;SDS011;45778;51.142;3.732;2023-02-22T07:28:44;41.22;;;25.15;;
59922;SDS011;45778;51.142;3.732;2023-02-22T07:31:10;44.45;;;24.83;;
59922;SDS011;45778;51.142;3.732;2023-02-22T07:33:36;46.70;;;25.27;;
59922;SDS011;45778;51.142;3.732;2023-02-22T07:36:02;46.15;;;26.77;;
59922;SDS011;45778;51.142;3.732;2023-02-22T07:38:28;47.00;;;26.83;;
59922;SDS011;45778;51.142;3.732;2023-02-22T07:40:54;48.22;;;27.58;;
59922;SDS011;45778;51.142;3.732;2023-02-22T07:43:25;44.33;;;24.40;;
59922;SDS011;45778;51.142;3.732;2023-02-22T07:45:56;40.60;;;24.92;;
59922;SDS011;45778;51.142;3.732;2023-02-22T07:48:24;39.67;;;21.80;;
59922;SDS011;45778;51.142;3.732;2023-02-22T07:50:51;39.53;;;21.45;;
59922;SDS011;45778;51.142;3.732;2023-02-22T07:53:21;36.65;;;21.83;;
59922;SDS011;45778;51.142;3.732;2023-02-22T07:55:47;36.63;;;23.60;;
59922;SDS011;45778;51.142;3.732;2023-02-22T07:58:17;42.47;;;27.25;;
59922;SDS011;45778;51.142;3.732;2023-02-22T08:00:45;41.67;;;29.60;;
59922;SDS011;45778;51.142;3.732;2023-02-22T08:03:12;41.92;;;30.33;;
59922;SDS011;45778;51.142;3.732;2023-02-22T08:05:41;49.80;;;35.10;;
59922;SDS011;45778;51.142;3.732;2023-02-22T08:08:10;47.03;;;34.58;;
59922;SDS011;45778;51.142;3.732;2023-02-22T08:10:36;49.70;;;34.25;;
59922;SDS011;45778;51.142;3.732;2023-02-22T08:13:02;39.97;;;29.25;;
59922;SDS011;45778;51.142;3.732;2023-02-22T08:15:38;40.90;;;27.35;;
59922;SDS011;45778;51.142;3.732;2023-02-22T08:18:06;32.47;;;21.48;;
59922;SDS011;45778;51.142;3.732;2023-02-22T08:20:34;31.13;;;19.35;;
59922;SDS011;45778;51.142;3.732;2023-02-22T08:23:01;28.05;;;17.90;;
59922;SDS011;45778;51.142;3.732;2023-02-22T08:25:28;27.55;;;17.52;;
59922;SDS011;45778;51.142;3.732;2023-02-22T08:27:59;27.67;;;17.63;;
59922;SDS011;45778;51.142;3.732;2023-02-22T08:30:29;31.63;;;17.63;;
59922;SDS011;45778;51.142;3.732;2023-02-22T08:32:57;28.50;;;17.38;;
59922;SDS011;45778;51.142;3.732;2023-02-22T08:35:23;29.42;;;17.85;;
59922;SDS011;45778;51.142;3.732;2023-02-22T08:37:53;26.52;;;17.40;;
59922;SDS011;45778;51.142;3.732;2023-02-22T08:40:22;27.70;;;17.58;;
59922;SDS011;45778;51.142;3.732;2023-02-22T08:42:49;27.02;;;18.08;;
59922;SDS011;45778;51.142;3.732;2023-02-22T08:45:15;29.35;;;17.70;;
59922;SDS011;45778;51.142;3.732;2023-02-22T08:47:41;30.08;;;17.80;;
59922;SDS011;45778;51.142;3.732;2023-02-22T08:50:07;34.08;;;18.40;;
59922;SDS011;45778;51.142;3.732;2023-02-22T08:52:39;34.35;;;18.63;;
59922;SDS011;45778;51.142;3.732;2023-02-22T08:55:05;27.20;;;17.88;;
59922;SDS011;45778;51.142;3.732;2023-02-22T08:57:31;36.50;;;19.42;;
59922;SDS011;45778;51.142;3.732;2023-02-22T08:59:56;30.48;;;18.63;;
59922;SDS011;45778;51.142;3.732;2023-02-22T09:02:22;28.33;;;16.75;;
59922;SDS011;45778;51.142;3.732;2023-02-22T09:04:49;31.17;;;17.38;;
59922;SDS011;45778;51.142;3.732;2023-02-22T09:07:15;28.27;;;17.38;;
59922;SDS011;45778;51.142;3.732;2023-02-22T09:09:42;28.17;;;16.58;;
59922;SDS011;45778;51.142;3.732;2023-02-22T09:12:08;27.33;;;17.25;;
59922;SDS011;45778;51.142;3.732;2023-02-22T09:14:34;25.50;;;17.38;;
59922;SDS011;45778;51.142;3.732;2023-02-22T09:17:00;24.63;;;17.10;;
59922;SDS011;45778;51.142;3.732;2023-02-22T09:19:26;27.75;;;16.63;;
59922;SDS011;45778;51.142;3.732;2023-02-22T09:21:52;29.38;;;17.33;;
59922;SDS011;45778;51.142;3.732;2023-02-22T09:24:19;28.75;;;17.55;;
59922;SDS011;45778;51.142;3.732;2023-02-22T09:26:45;26.20;;;17.55;;
59922;SDS011;45778;51.142;3.732;2023-02-22T09:29:12;26.98;;;17.20;;
59922;SDS011;45778;51.142;3.732;2023-02-22T09:31:38;22.73;;;16.10;;
59922;SDS011;45778;51.142;3.732;2023-02-22T09:34:05;24.20;;;15.38;;
59922;SDS011;45778;51.142;3.732;2023-02-22T09:36:47;21.77;;;15.63;;
59922;SDS011;45778;51.142;3.732;2023-02-22T09:39:14;24.10;;;15.77;;
59922;SDS011;45778;51.142;3.732;2023-02-22T09:41:50;23.98;;;16.58;;
59922;SDS011;45778;51.142;3.732;2023-02-22T09:47:20;25.77;;;16.67;;
59922;SDS011;45778;51.142;3.732;2023-02-22T09:50:01;23.33;;;16.17;;
59922;SDS011;45778;51.142;3.732;2023-02-22T09:58:32;24.60;;;15.35;;
59922;SDS011;45778;51.142;3.732;2023-02-22T10:01:21;22.40;;;15.75;;
59922;SDS011;45778;51.142;3.732;2023-02-22T10:09:02;26.40;;;17.30;;
59922;SDS011;45778;51.142;3.732;2023-02-22T10:14:41;27.17;;;18.02;;
59922;SDS011;45778;51.142;3.732;2023-02-22T10:22:45;27.40;;;18.90;;
59922;SDS011;45778;51.142;3.732;2023-02-22T10:25:19;25.65;;;19.10;;
59922;SDS011;45778;51.142;3.732;2023-02-22T10:27:59;26.58;;;18.50;;
59922;SDS011;45778;51.142;3.732;2023-02-22T10:30:49;30.30;;;19.98;;
59922;SDS011;45778;51.142;3.732;2023-02-22T10:35:46;30.50;;;19.77;;
59922;SDS011;45778;51.142;3.732;2023-02-22T10:40:48;31.00;;;21.10;;
59922;SDS011;45778;51.142;3.732;2023-02-22T10:43:23;32.50;;;21.85;;
59922;SDS011;45778;51.142;3.732;2023-02-22T10:45:50;34.42;;;20.90;;
59922;SDS011;45778;51.142;3.732;2023-02-22T10:48:19;35.50;;;23.08;;
59922;SDS011;45778;51.142;3.732;2023-02-22T10:50:48;38.67;;;22.48;;
59922;SDS011;45778;51.142;3.732;2023-02-22T10:53:17;34.08;;;22.33;;
59922;SDS011;45778;51.142;3.732;2023-02-22T11:01:21;30.60;;;23.10;;
59922;SDS011;45778;51.142;3.732;2023-02-22T11:04:42;39.15;;;24.27;;
59922;SDS011;45778;51.142;3.732;2023-02-22T11:06:44;34.55;;;25.08;;
59922;SDS011;45778;51.142;3.732;2023-02-22T11:09:21;34.33;;;24.85;;
59922;SDS011;45778;51.142;3.732;2023-02-22T11:11:47;35.05;;;24.00;;
59922;SDS011;45778;51.142;3.732;2023-02-22T11:14:24;39.88;;;25.65;;
59922;SDS011;45778;51.142;3.732;2023-02-22T11:16:52;34.38;;;23.15;;
59922;SDS011;45778;51.142;3.732;2023-02-22T11:19:21;35.38;;;24.48;;
59922;SDS011;45778;51.142;3.732;2023-02-22T11:21:50;32.90;;;25.05;;
59922;SDS011;45778;51.142;3.732;2023-02-22T11:24:19;35.25;;;25.75;;
59922;SDS011;45778;51.142;3.732;2023-02-22T11:26:49;40.60;;;24.73;;
59922;SDS011;45778;51.142;3.732;2023-02-22T11:29:32;37.65;;;26.55;;
59922;SDS011;45778;51.142;3.732;2023-02-22T11:32:01;37.40;;;24.05;;
59922;SDS011;45778;51.142;3.732;2023-02-22T11:34:38;35.78;;;25.20;;
59922;SDS011;45778;51.142;3.732;2023-02-22T11:37:26;37.72;;;24.77;;
59922;SDS011;45778;51.142;3.732;2023-02-22T11:42:43;41.05;;;26.70;;
59922;SDS011;45778;51.142;3.732;2023-02-22T11:47:46;41.35;;;29.23;;
59922;SDS011;45778;51.142;3.732;2023-02-22T11:50:21;37.90;;;27.45;;
59922;SDS011;45778;51.142;3.732;2023-02-22T11:52:48;41.60;;;28.50;;
59922;SDS011;45778;51.142;3.732;2023-02-22T11:55:26;39.83;;;27.58;;
59922;SDS011;45778;51.142;3.732;2023-02-22T12:00:32;42.38;;;28.67;;
59922;SDS011;45778;51.142;3.732;2023-02-22T12:08:36;50.25;;;33.25;;
59922;SDS011;45778;51.142;3.732;2023-02-22T12:19:32;51.45;;;32.78;;
59922;SDS011;45778;51.142;3.732;2023-02-22T12:22:03;48.40;;;33.70;;
59922;SDS011;45778;51.142;3.732;2023-02-22T12:24:40;54.53;;;35.17;;
59922;SDS011;45778;51.142;3.732;2023-02-22T12:27:14;55.83;;;36.45;;
59922;SDS011;45778;51.142;3.732;2023-02-22T12:34:50;57.08;;;37.30;;
59922;SDS011;45778;51.142;3.732;2023-02-22T12:37:25;56.13;;;37.13;;
59922;SDS011;45778;51.142;3.732;2023-02-22T12:40:13;53.88;;;34.97;;
59922;SDS011;45778;51.142;3.732;2023-02-22T12:51:06;69.95;;;39.63;;
59922;SDS011;45778;51.142;3.732;2023-02-22T12:53:43;62.33;;;39.58;;
59922;SDS011;45778;51.142;3.732;2023-02-22T12:56:27;74.53;;;41.58;;
59922;SDS011;45778;51.142;3.732;2023-02-22T13:01:59;64.57;;;40.58;;
59922;SDS011;45778;51.142;3.732;2023-02-22T13:04:47;66.50;;;41.40;;
59922;SDS011;45778;51.142;3.732;2023-02-22T13:10:01;80.38;;;47.67;;
59922;SDS011;45778;51.142;3.732;2023-02-22T13:18:41;82.75;;;46.25;;
59922;SDS011;45778;51.142;3.732;2023-02-22T13:29:12;87.03;;;49.33;;
59922;SDS011;45778;51.142;3.732;2023-02-22T13:48:07;94.35;;;49.72;;
59922;SDS011;45778;51.142;3.732;2023-02-22T13:53:57;96.38;;;52.10;;
59922;SDS011;45778;51.142;3.732;2023-02-22T13:56:23;97.72;;;53.47;;
59922;SDS011;45778;51.142;3.732;2023-02-22T13:58:51;98.90;;;52.05;;
59922;SDS011;45778;51.142;3.732;2023-02-22T14:01:38;100.07;;;49.88;;
59922;SDS011;45778;51.142;3.732;2023-02-22T14:15:07;111.78;;;51.92;;
59922;SDS011;45778;51.142;3.732;2023-02-22T14:17:48;116.20;;;55.38;;
59922;SDS011;45778;51.142;3.732;2023-02-22T14:25:52;111.37;;;52.23;;
59922;SDS011;45778;51.142;3.732;2023-02-22T14:28:36;108.78;;;54.28;;
59922;SDS011;45778;51.142;3.732;2023-02-22T14:31:15;119.25;;;51.92;;
59922;SDS011;45778;51.142;3.732;2023-02-22T14:33:49;114.22;;;51.90;;
59922;SDS011;45778;51.142;3.732;2023-02-22T14:36:16;113.63;;;52.45;;
59922;SDS011;45778;51.142;3.732;2023-02-22T14:38:47;111.13;;;53.47;;
59922;SDS011;45778;51.142;3.732;2023-02-22T14:41:18;118.22;;;52.47;;
59922;SDS011;45778;51.142;3.732;2023-02-22T14:43:52;115.88;;;53.17;;
59922;SDS011;45778;51.142;3.732;2023-02-22T14:46:20;118.13;;;52.60;;
59922;SDS011;45778;51.142;3.732;2023-02-22T14:48:48;123.60;;;56.92;;
59922;SDS011;45778;51.142;3.732;2023-02-22T14:51:36;130.80;;;56.25;;
59922;SDS011;45778;51.142;3.732;2023-02-22T14:54:26;125.15;;;53.95;;
59922;SDS011;45778;51.142;3.732;2023-02-22T14:59:51;112.20;;;53.00;;
59922;SDS011;45778;51.142;3.732;2023-02-22T15:02:26;121.70;;;56.00;;
59922;SDS011;45778;51.142;3.732;2023-02-22T15:05:02;120.97;;;55.17;;
59922;SDS011;45778;51.142;3.732;2023-02-22T15:07:30;125.45;;;56.08;;
59922;SDS011;45778;51.142;3.732;2023-02-22T15:12:50;132.10;;;58.70;;
59922;SDS011;45778;51.142;3.732;2023-02-22T15:15:19;124.10;;;55.63;;
59922;SDS011;45778;51.142;3.732;2023-02-22T15:17:48;115.78;;;56.05;;
59922;SDS011;45778;51.142;3.732;2023-02-22T15:20:18;121.57;;;55.63;;
59922;SDS011;45778;51.142;3.732;2023-02-22T15:22:45;114.72;;;56.38;;
59922;SDS011;45778;51.142;3.732;2023-02-22T15:25:13;112.85;;;54.15;;
59922;SDS011;45778;51.142;3.732;2023-02-22T15:27:39;127.25;;;55.30;;
59922;SDS011;45778;51.142;3.732;2023-02-22T15:30:24;118.93;;;54.83;;
59922;SDS011;45778;51.142;3.732;2023-02-22T15:32:51;113.20;;;54.97;;
59922;SDS011;45778;51.142;3.732;2023-02-22T15:35:19;106.88;;;50.95;;
59922;SDS011;45778;51.142;3.732;2023-02-22T15:37:56;105.72;;;51.03;;
59922;SDS011;45778;51.142;3.732;2023-02-22T15:40:26;99.18;;;50.60;;
59922;SDS011;45778;51.142;3.732;2023-02-22T15:43:14;104.50;;;53.08;;
59922;SDS011;45778;51.142;3.732;2023-02-22T15:45:43;108.07;;;53.47;;
59922;SDS011;45778;51.142;3.732;2023-02-22T15:48:10;110.65;;;54.63;;
59922;SDS011;45778;51.142;3.732;2023-02-22T15:50:36;106.82;;;49.88;;
59922;SDS011;45778;51.142;3.732;2023-02-22T15:55:37;101.10;;;47.53;;
59922;SDS011;45778;51.142;3.732;2023-02-22T15:58:06;93.85;;;47.58;;
59922;SDS011;45778;51.142;3.732;2023-02-22T16:00:36;90.80;;;47.22;;
59922;SDS011;45778;51.142;3.732;2023-02-22T16:03:07;96.93;;;47.45;;
59922;SDS011;45778;51.142;3.732;2023-02-22T16:05:57;89.05;;;44.30;;
59922;SDS011;45778;51.142;3.732;2023-02-22T16:08:23;84.28;;;41.88;;
59922;SDS011;45778;51.142;3.732;2023-02-22T16:11:06;83.35;;;40.38;;
59922;SDS011;45778;51.142;3.732;2023-02-22T16:13:38;85.07;;;42.22;;
59922;SDS011;45778;51.142;3.732;2023-02-22T16:18:45;84.05;;;42.33;;
59922;SDS011;45778;51.142;3.732;2023-02-22T16:21:12;86.43;;;42.10;;
59922;SDS011;45778;51.142;3.732;2023-02-22T16:28:50;85.65;;;42.30;;
59922;SDS011;45778;51.142;3.732;2023-02-22T16:31:32;72.25;;;38.90;;
59922;SDS011;45778;51.142;3.732;2023-02-22T16:34:03;74.75;;;38.90;;
59922;SDS011;45778;51.142;3.732;2023-02-22T16:36:42;78.30;;;41.35;;
59922;SDS011;45778;51.142;3.732;2023-02-22T16:39:23;81.30;;;39.42;;
59922;SDS011;45778;51.142;3.732;2023-02-22T16:41:51;73.03;;;38.80;;
59922;SDS011;45778;51.142;3.732;2023-02-22T16:44:25;72.97;;;38.40;;
59922;SDS011;45778;51.142;3.732;2023-02-22T16:46:55;72.30;;;37.47;;
59922;SDS011;45778;51.142;3.732;2023-02-22T16:49:24;77.72;;;38.92;;
59922;SDS011;45778;51.142;3.732;2023-02-22T16:51:59;68.70;;;38.13;;
59922;SDS011;45778;51.142;3.732;2023-02-22T16:54:27;77.80;;;40.20;;
59922;SDS011;45778;51.142;3.732;2023-02-22T16:56:58;75.50;;;38.85;;
59922;SDS011;45778;51.142;3.732;2023-02-22T16:59:27;72.70;;;37.95;;
59922;SDS011;45778;51.142;3.732;2023-02-22T17:01:56;77.35;;;37.25;;
59922;SDS011;45778;51.142;3.732;2023-02-22T17:04:23;69.78;;;38.05;;
59922;SDS011;45778;51.142;3.732;2023-02-22T17:06:50;69.55;;;37.40;;
59922;SDS011;45778;51.142;3.732;2023-02-22T17:09:16;67.35;;;35.42;;
59922;SDS011;45778;51.142;3.732;2023-02-22T17:11:44;70.57;;;38.13;;
59922;SDS011;45778;51.142;3.732;2023-02-22T17:14:15;67.25;;;35.30;;
59922;SDS011;45778;51.142;3.732;2023-02-22T17:16:43;69.13;;;37.38;;
59922;SDS011;45778;51.142;3.732;2023-02-22T17:19:14;70.22;;;35.10;;
59922;SDS011;45778;51.142;3.732;2023-02-22T17:21:41;68.63;;;35.15;;
59922;SDS011;45778;51.142;3.732;2023-02-22T17:24:10;68.13;;;37.40;;
59922;SDS011;45778;51.142;3.732;2023-02-22T17:26:37;64.10;;;34.63;;
59922;SDS011;45778;51.142;3.732;2023-02-22T17:29:03;66.05;;;35.20;;
59922;SDS011;45778;51.142;3.732;2023-02-22T17:31:29;67.03;;;34.58;;
59922;SDS011;45778;51.142;3.732;2023-02-22T17:33:56;69.40;;;36.38;;